weather.gov     
National Weather Service

Terminal Aerodrome Forecast
NWS Homepage
This page is being discontinued on March 12, 2014.
The same data is available at this site. Please update your bookmarks.
Thank you, and we apologize for the inconvenience.
Please send an email to SR-SRH.Webmaster@noaa.gov with any concerns.


Current Version
Previous Version:    01  02  03  04  05  06  07  08  09  10  11  12  13  14  15  16  17  18  19  20  21  22  23  24  25  26  27  28  29  30  
   31  32  33  34  35  36  37  
[Printable]
524
FTUS46 KPQR 301120
TAFHIO
TAF
KHIO 301120Z 3012/3112 VRB03KT 5SM -RA BR SCT007 OVC045
     FM301700 VRB03KT 2SM -RA BR SCT007 OVC035
     FM301900 12003KT 4SM -RA BR OVC050
     FM310100 14005KT 3SM -RA BR BKN015 OVC030=


524
FTUS46 KPQR 301120
TAFHIO
TAF
KHIO 301120Z 3012/3112 VRB03KT 5SM -RA BR SCT007 OVC045
     FM301700 VRB03KT 2SM -RA BR SCT007 OVC035
     FM301900 12003KT 4SM -RA BR OVC050
     FM310100 14005KT 3SM -RA BR BKN015 OVC030=




U.S. Dept. of Commerce
NOAA National Weather Service
1325 East West Highway
Silver Spring, MD 20910
E-mail: w-nws.webmaster@noaa.gov
Page last modified: May 16, 2007
NATIONAL WEATHER SERVICE: for Safety, for Work, for Fun - FOR LIFE